Weather reports worldwide

Advertisment
Feldberg/Schwarzwald, Germany (10908): temperature & dewpoint: 20.03.2019 08:00:00 - 26.03.2019 08:00:00 (CET)Feldberg/Schwarzwald, Germany (10908): temperature 5cm & temperature -5cm: 20.03.2019 08:00:00 - 26.03.2019 08:00:00 (CET)Feldberg/Schwarzwald, Germany (10908): temperature -20cm & temperature -100cm: 20.03.2019 08:00:00 - 26.03.2019 08:00:00 (CET)Feldberg/Schwarzwald, Germany (10908): wind speed & gusts: 20.03.2019 08:00:00 - 26.03.2019 08:00:00 (CET)Feldberg/Schwarzwald, Germany (10908): wind direction: 20.03.2019 08:00:00 - 26.03.2019 08:00:00 (CET)Feldberg/Schwarzwald, Germany (10908): visibility: 20.03.2019 08:00:00 - 26.03.2019 08:00:00 (CET)Feldberg/Schwarzwald, Germany (10908): sunshine duration: 20.03.2019 08:00:00 - 26.03.2019 08:00:00 (CET)
Date & Time tt [°C] td [°C] tt 5cm [°C] tt -5cm [°C] tt -20cm [°C] tt -100cm [°C] ff [km/h] ff [kn] fx [km/h] fx [kn] dd vv [km] sd [min]
26.03.2019 08:00:00 - - - - - - - - - - - - -
26.03.2019 07:00:00 -5,8 -7,0 0,1 0,1 0,3 1,7 32 18 59 32 NNE 0,1 0
26.03.2019 06:00:00 -6,0 -7,3 0,1 0,1 0,3 1,7 45 24 64 34 NE 6 0
26.03.2019 05:00:00 -5,5 -6,6 0,1 0,1 0,3 1,7 39 21 63 34 NNE 0,1 0
26.03.2019 04:00:00 -5,6 -6,7 0,1 0,1 0,3 1,7 49 26 64 35 NNE 0,2 0
26.03.2019 03:00:00 -5,0 -5,9 0,0 0,1 0,3 1,7 32 17 68 37 NNE 0,1 0
26.03.2019 02:00:00 -5,0 -6,0 0,1 0,1 0,3 1,7 35 19 66 35 NNE - 0
26.03.2019 01:00:00 -4,9 -5,8 0,1 0,1 0,3 1,7 47 26 85 46 N 0,1 0
26.03.2019 00:00:00 -4,4 -5,2 0,1 0,1 0,3 1,7 37 20 58 31 N 0,1 0
25.03.2019 23:00:00 -4,2 -5,0 0,1 0,1 0,3 1,7 24 13 48 26 N 0,1 0
25.03.2019 22:00:00 -4,0 -4,8 0,0 0,1 0,3 1,7 37 20 56 30 NNW 0,1 0
25.03.2019 21:00:00 -4,1 -5,0 0,1 0,1 0,3 1,7 36 20 56 31 NW 0,1 0
25.03.2019 20:00:00 -3,1 -6,8 0,1 0,1 0,3 1,7 23 13 49 27 NW 55 0
25.03.2019 19:00:00 -3,0 -7,2 0,1 0,1 0,3 1,7 36 20 56 30 NNW 50 0
25.03.2019 18:00:00 -2,6 -7,4 0,1 0,1 0,3 1,7 40 21 62 33 NNW 54 1
25.03.2019 17:00:00 -2,3 -7,2 0,1 0,1 0,3 1,7 31 17 58 31 NW 39 16
25.03.2019 16:00:00 -1,7 -7,3 0,1 0,1 0,3 1,7 33 18 54 29 NW 40 19
25.03.2019 15:00:00 -1,8 -7,3 0,1 0,1 0,3 1,7 36 19 62 33 NW 49 11
25.03.2019 14:00:00 -2,6 -5,9 0,1 0,1 0,3 1,7 36 19 66 36 WNW 40 7
25.03.2019 13:00:00 -3,3 -5,4 0,1 0,1 0,3 1,7 33 18 53 29 WNW 44 0
25.03.2019 12:00:00 -3,7 -5,9 0,1 0,1 0,3 1,7 34 19 49 26 WNW 23 9
25.03.2019 11:00:00 -3,4 -6,1 0,1 0,1 0,3 1,7 36 20 52 28 NW 35 9
25.03.2019 10:00:00 -3,9 -5,4 0,1 0,1 0,3 1,7 39 21 53 28 NNW 11 24
25.03.2019 09:00:00 -3,8 -5,5 0,1 0,1 0,3 1,7 29 16 38 20 NW 19 60
25.03.2019 08:00:00 -4,4 -5,8 0,1 0,1 0,3 1,7 27 14 40 22 NW 19 17
25.03.2019 07:00:00 -4,0 -5,0 0,1 0,1 0,3 1,7 26 14 39 21 NW 14 0
25.03.2019 06:00:00 -3,2 -3,9 0,1 0,1 0,3 1,7 29 16 42 23 NW 0,1 0
25.03.2019 05:00:00 -1,5 -2,0 0,1 0,1 0,3 1,7 29 16 41 22 NW - 0
25.03.2019 04:00:00 -0,9 -1,3 0,1 0,1 0,3 1,7 26 14 36 19 NW - 0
25.03.2019 03:00:00 -0,9 -1,5 0,1 0,1 0,3 1,7 27 15 40 22 NW - 0
25.03.2019 02:00:00 0,1 -0,5 0,1 0,1 0,3 1,7 23 13 32 18 WNW - 0
25.03.2019 01:00:00 0,5 -0,1 0,1 0,1 0,3 1,7 22 12 30 16 WNW - 0
25.03.2019 00:00:00 0,9 -0,6 0,1 0,1 0,3 1,7 21 11 24 13 W 2,3 0
24.03.2019 23:00:00 1,5 -1,3 0,1 0,1 0,3 1,7 18 10 25 14 WNW 7 0
24.03.2019 22:00:00 1,2 -0,8 0,1 0,1 0,3 1,7 23 12 31 17 NNW 4,2 0
24.03.2019 21:00:00 1,8 -0,7 0,1 0,1 0,3 1,7 24 13 31 17 NNW 6 0
24.03.2019 20:00:00 2,2 1,1 0,1 0,1 0,3 1,7 21 11 32 17 N 2,1 0
24.03.2019 19:00:00 2,7 0,9 0,1 0,1 0,3 1,7 22 12 28 15 NNW 3,7 1
24.03.2019 18:00:00 3,7 1,0 0,1 0,1 0,3 1,7 23 13 30 16 NNW 6 49
24.03.2019 17:00:00 5,8 -0,2 0,1 0,1 0,3 1,7 18 10 29 16 NW 13 60
24.03.2019 16:00:00 6,5 -0,9 0,1 0,1 0,3 1,7 25 13 40 21 WNW 14 60
24.03.2019 15:00:00 6,3 -2,7 0,1 0,1 0,3 1,7 25 14 33 18 WNW 16 60
24.03.2019 14:00:00 6,1 -1,2 0,1 0,1 0,3 1,7 22 12 30 16 W 14 60
24.03.2019 13:00:00 6,4 -2,6 0,1 0,1 0,3 1,7 22 12 31 17 W 23 60
24.03.2019 12:00:00 6,3 -2,8 0,1 0,1 0,3 1,7 14 8 21 11 W 25 60
24.03.2019 11:00:00 6,4 -2,1 0,1 0,1 0,3 1,7 10 6 15 8 W 22 60
24.03.2019 10:00:00 6,4 -3,5 0,1 0,1 0,3 1,7 11 6 15 8 SW 18 60
24.03.2019 09:00:00 6,1 -3,8 0,1 0,1 0,3 1,7 10 5 13 7 SSW 20 60
24.03.2019 08:00:00 6,0 -5,9 0,1 0,1 0,3 1,7 8 4 13 7 SSW 23 60
24.03.2019 07:00:00 6,0 -5,3 0,1 0,1 0,3 1,7 11 6 12 7 SSW 25 9
24.03.2019 06:00:00 5,7 -5,5 0,1 0,1 0,3 1,7 0 0 8 4 N 28 0
24.03.2019 05:00:00 5,9 -4,9 0,1 0,1 0,3 1,7 5 3 12 6 SSW 27 0
24.03.2019 04:00:00 5,8 -4,0 0,1 0,1 0,3 1,7 10 5 26 14 SE 22 0
24.03.2019 03:00:00 5,1 -3,3 0,1 0,1 0,3 1,7 21 11 31 17 SE 19 0
24.03.2019 02:00:00 5,7 -3,5 0,1 0,1 0,3 1,7 28 15 39 21 ESE 18 0
24.03.2019 01:00:00 4,9 -2,4 0,1 0,1 0,3 1,7 30 16 34 18 ESE 16 0
24.03.2019 00:00:00 5,2 -1,9 0,1 0,1 0,3 1,7 28 15 33 18 ESE 16 0
23.03.2019 23:00:00 4,7 -1,5 0,1 0,1 0,3 1,7 15 8 20 11 E 13 0
23.03.2019 22:00:00 5,4 -1,8 0,1 0,1 0,3 1,7 16 9 28 15 E 24 0
23.03.2019 21:00:00 6,9 -1,6 0,1 0,1 0,3 1,7 19 10 22 12 E 21 0
23.03.2019 20:00:00 7,0 -4,1 0,1 0,1 0,3 1,7 11 6 13 7 ENE 31 0
23.03.2019 19:00:00 6,5 -7,0 0,1 0,1 0,3 1,7 9 5 11 6 NNE 34 27
23.03.2019 18:00:00 7,3 -5,6 0,1 0,1 0,3 1,7 10 5 11 6 N 33 60
23.03.2019 17:00:00 8,7 -2,3 0,1 0,1 0,3 1,7 5 3 11 6 N 30 60
23.03.2019 16:00:00 8,1 -1,9 0,1 0,1 0,3 1,7 8 4 14 8 N 25 60
23.03.2019 15:00:00 7,8 -1,0 0,1 0,1 0,3 1,7 10 5 17 9 N 28 60
23.03.2019 14:00:00 8,5 -0,6 0,1 0,1 0,3 1,7 8 5 16 9 NNW 29 60
23.03.2019 13:00:00 8,1 -2,5 0,1 0,1 0,3 1,7 7 4 14 8 WNW 31 60
23.03.2019 12:00:00 8,7 -5,5 0,1 0,1 0,3 1,7 6 3 13 7 WSW 54 60
23.03.2019 11:00:00 8,3 -5,0 0,1 0,1 0,3 1,7 5 3 10 5 S 40 60
23.03.2019 10:00:00 6,8 -11,4 0,1 0,1 0,3 1,7 8 4 16 9 SW 44 60
23.03.2019 09:00:00 6,4 -12,5 0,1 0,1 0,3 1,7 12 7 16 9 SW 33 60
23.03.2019 08:00:00 6,9 -22,2 0,1 0,1 0,3 1,7 14 7 19 11 SW 54 60
23.03.2019 07:00:00 6,2 -13,5 0,1 0,1 0,3 1,7 13 7 23 12 SSW 51 7
23.03.2019 06:00:00 5,1 -6,4 0,1 0,1 0,3 1,7 21 11 28 15 SSW 36 0
23.03.2019 05:00:00 4,9 -2,9 0,1 0,1 0,3 1,7 24 13 29 16 SW 29 0
23.03.2019 04:00:00 5,2 -2,8 0,1 0,1 0,3 1,7 25 13 28 15 SW 29 0
23.03.2019 03:00:00 5,6 -3,3 0,1 0,1 0,3 1,7 22 12 26 14 SW 31 0
23.03.2019 02:00:00 5,7 -3,0 0,1 0,1 0,3 1,7 22 12 25 14 SSW 30 0
23.03.2019 01:00:00 5,9 -2,9 0,1 0,1 0,3 1,7 22 12 28 15 SSW 32 0
23.03.2019 00:00:00 6,0 -3,6 0,1 0,1 0,3 1,7 27 15 31 17 SW 32 0
22.03.2019 23:00:00 6,3 -7,8 0,1 0,1 0,3 1,7 23 13 29 16 SW 49 0
22.03.2019 22:00:00 6,2 -9,8 0,1 0,1 0,3 1,7 22 12 30 16 SSW 43 0
22.03.2019 21:00:00 6,6 -9,5 0,1 0,1 0,3 1,7 23 12 26 14 SW 41 0
22.03.2019 20:00:00 6,9 -7,4 0,1 0,1 0,3 1,7 19 10 21 12 SSW 26 0
22.03.2019 19:00:00 7,3 -5,6 0,1 0,1 0,3 1,7 11 6 14 8 SSW 37 26
22.03.2019 18:00:00 8,1 -4,8 0,1 0,1 0,3 1,7 14 7 17 9 SW 47 60
22.03.2019 17:00:00 8,7 -4,4 0,1 0,1 0,3 1,7 11 6 17 9 WSW 51 60
22.03.2019 16:00:00 8,7 -4,6 0,1 0,1 0,3 1,7 14 8 18 10 WSW 47 60
22.03.2019 15:00:00 8,6 -4,5 0,1 0,1 0,3 1,7 13 7 18 10 SSW 42 60
22.03.2019 14:00:00 8,5 -6,8 0,1 0,1 0,3 1,7 8 5 16 9 SSW 44 60
22.03.2019 13:00:00 7,5 -5,6 0,1 0,1 0,3 1,7 11 6 20 11 S 40 60
22.03.2019 12:00:00 6,9 -4,6 0,1 0,1 0,3 1,7 13 7 18 10 S 38 60
22.03.2019 11:00:00 6,1 -3,9 0,1 0,1 0,3 1,7 9 5 13 7 SSE 42 60
22.03.2019 10:00:00 6,7 -8,1 0,1 0,1 0,3 1,7 10 5 13 7 E 67 60
22.03.2019 09:00:00 6,7 -9,5 0,1 0,1 0,3 1,7 10 5 14 8 E 41 60
22.03.2019 08:00:00 5,7 -9,2 0,1 0,1 0,3 1,7 13 7 20 11 SSE 63 60
22.03.2019 07:00:00 5,1 -7,8 0,1 0,1 0,3 1,7 16 9 19 10 SSE 50 5
22.03.2019 06:00:00 6,9 -12,5 0,1 0,1 0,3 1,7 17 9 23 13 SE 75 0
22.03.2019 05:00:00 6,6 -11,8 0,1 0,1 0,3 1,7 20 11 33 18 SSE 66 0
22.03.2019 04:00:00 7,2 -12,1 0,1 0,1 0,3 1,7 34 18 35 19 ESE 64 0
22.03.2019 03:00:00 7,8 -15,4 0,1 0,1 0,3 1,7 28 15 30 16 ESE 59 0
22.03.2019 02:00:00 6,4 -14,3 0,1 0,1 0,3 1,7 25 13 35 19 SE 61 0
22.03.2019 01:00:00 4,4 -10,3 0,1 0,1 0,3 1,7 15 8 29 16 SE 57 0
22.03.2019 00:00:00 5,4 -13,8 0,1 0,1 0,3 1,7 23 12 37 20 ESE 47 0
21.03.2019 23:00:00 1,9 -7,7 0,1 0,1 0,3 1,7 36 19 51 27 ESE 47 0
21.03.2019 22:00:00 1,6 -7,2 0,1 0,1 0,3 1,7 43 23 56 30 E 43 0
21.03.2019 21:00:00 1,7 -7,1 0,1 0,1 0,3 1,7 47 25 60 32 E 44 0
21.03.2019 20:00:00 2,2 -7,4 0,1 0,1 0,3 1,7 42 23 50 27 E 11 0
21.03.2019 19:00:00 3,3 -7,9 0,1 0,1 0,3 1,7 23 12 29 15 ESE 10 23
21.03.2019 18:00:00 4,2 -8,2 0,1 0,1 0,3 1,7 16 9 24 13 E 33 60
21.03.2019 17:00:00 5,2 -8,0 0,1 0,1 0,3 1,7 13 7 26 14 ENE 66 60
21.03.2019 16:00:00 5,3 -9,0 0,1 0,1 0,3 1,7 13 7 31 17 ENE 48 60
21.03.2019 15:00:00 4,9 -10,1 0,1 0,1 0,3 1,7 16 9 38 20 E 74 60
21.03.2019 14:00:00 4,3 -9,7 0,1 0,1 0,3 1,7 26 14 56 30 ENE 49 60
21.03.2019 13:00:00 3,1 -10,9 0,1 0,1 0,3 1,7 43 23 80 43 ENE 48 60
21.03.2019 12:00:00 1,9 -12,3 0,1 0,1 0,3 1,7 58 32 86 47 E 72 60
21.03.2019 11:00:00 -0,1 -11,8 0,1 0,1 0,3 1,7 62 34 85 46 E 54 60
21.03.2019 10:00:00 -0,3 -13,3 0,1 0,1 0,3 1,7 63 34 85 46 E 18 60
21.03.2019 09:00:00 -1,9 -12,1 0,1 0,1 0,3 1,7 65 35 89 48 E 12 60
21.03.2019 08:00:00 -2,7 -11,2 0,1 0,1 0,3 1,7 71 38 87 47 E 10 60
21.03.2019 07:00:00 -3,9 -9,5 0,1 0,1 0,3 1,7 71 38 95 52 E 18 3
21.03.2019 06:00:00 -3,6 -9,2 0,1 0,1 0,3 1,7 77 42 98 53 E 8 0
21.03.2019 05:00:00 -3,6 -9,5 0,1 0,1 0,3 1,7 70 38 87 47 E 36 0
21.03.2019 04:00:00 -3,5 -9,2 0,1 0,1 0,3 1,7 67 36 79 42 E 37 0
21.03.2019 03:00:00 -3,0 -9,0 0,1 0,1 0,3 1,7 65 35 80 43 E 37 0
21.03.2019 02:00:00 -3,3 -8,5 0,1 0,1 0,3 1,7 64 35 74 40 E 39 0
21.03.2019 01:00:00 -2,9 -8,3 0,1 0,1 0,3 1,7 62 34 77 42 E 44 0
21.03.2019 00:00:00 -2,9 -7,9 0,1 0,1 0,3 1,7 66 35 76 41 E 40 0
20.03.2019 23:00:00 -2,6 -7,4 0,1 0,1 0,3 1,7 64 34 72 39 E 37 0
20.03.2019 22:00:00 -2,4 -7,4 0,1 0,1 0,3 1,7 53 28 66 36 E 41 0
20.03.2019 21:00:00 -2,2 -7,7 0,1 0,1 0,3 1,7 46 25 57 31 E 40 0
20.03.2019 20:00:00 -1,5 -6,3 0,1 0,1 0,3 1,7 34 18 48 26 ENE 47 0
20.03.2019 19:00:00 -0,7 -6,2 0,1 0,1 0,3 1,7 24 13 35 19 NE 41 22
20.03.2019 18:00:00 0,3 -6,0 0,1 0,1 0,3 1,7 16 9 30 16 ENE 52 60
20.03.2019 17:00:00 0,5 -6,3 0,1 0,1 0,3 1,7 21 11 34 18 ENE 44 60
20.03.2019 16:00:00 0,9 -6,8 0,1 0,1 0,3 1,7 18 10 32 17 NE 75 60
20.03.2019 15:00:00 0,7 -7,6 0,1 0,1 0,3 1,7 21 11 33 18 NE 42 60
20.03.2019 14:00:00 0,0 -7,7 0,1 0,1 0,3 1,7 24 13 38 21 N 48 60
20.03.2019 13:00:00 -0,3 -7,7 0,1 0,1 0,3 1,7 24 13 36 19 NNE 57 60
20.03.2019 12:00:00 -1,0 -6,3 0,1 0,1 0,3 1,7 12 7 33 18 ENE 37 60
20.03.2019 11:00:00 -2,4 -6,4 0,1 0,1 0,3 1,7 19 10 41 22 ENE 35 60
20.03.2019 10:00:00 -3,6 -7,4 0,1 0,1 0,3 1,7 34 18 43 23 E 22 60
20.03.2019 09:00:00 -3,9 -6,9 0,1 0,1 0,3 1,7 31 17 37 20 E 26 60
20.03.2019 08:00:00 -4,0 -6,5 0,1 0,1 0,3 1,7 22 12 30 16 ENE 23 60

tt = temperature
td = dewpoint
tt 5cm = temperature 5cm
tt -5cm = temperature -5cm
tt -20cm = temperature -20cm
tt -100cm = temperature -100cm
ff = wind speed
fx = gusts
dd = wind direction
vv = visibility
sd = sunshine duration

Next stations